Time;durP1;ratioP1;P1;durP2;ratioP2;P2;SDS_P1;SDS_P2;PMS_P1;PMS_P2;Temp;Humidity;BMP_temperature;BMP_pressure;BME280_temperature;BME280_humidity;BME280_pressure;Samples;Min_cycle;Max_cycle;Signal;HPM_P1;HPM_P2
2022/06/26 00:01:14;;;;;;;5.43;3.13;;;;;;;19.91;72.41;100538.69;6001853;28;20038;-65
2022/06/26 00:04:09;;;;;;;7.72;3.10;;;;;;;19.74;73.06;100529.41;6001408;28;20062;-67
2022/06/26 00:07:05;;;;;;;5.33;3.30;;;;;;;19.67;73.53;100547.44;6002973;28;20121;-66
2022/06/26 00:10:00;;;;;;;4.80;3.08;;;;;;;19.51;74.11;100535.22;6001553;28;20031;-67
2022/06/26 00:12:56;;;;;;;6.40;3.20;;;;;;;19.70;74.00;100549.72;6001721;28;20059;-66
2022/06/26 00:15:51;;;;;;;4.32;3.00;;;;;;;19.78;74.03;100538.72;6001348;28;20122;-66
2022/06/26 00:18:47;;;;;;;5.38;3.38;;;;;;;19.63;74.59;100548.88;6002062;28;20046;-66
2022/06/26 00:21:43;;;;;;;5.22;3.30;;;;;;;19.62;74.72;100544.56;6001936;28;20094;-66
2022/06/26 00:24:41;;;;;;;5.77;3.50;;;;;;;19.67;74.50;100539.38;5995141;28;20031;-66
2022/06/26 00:27:36;;;;;;;5.05;3.70;;;;;;;19.76;74.34;100540.78;5998929;28;20326;-67
2022/06/26 00:30:32;;;;;;;4.30;3.43;;;;;;;19.56;74.90;100538.16;6000754;28;20474;-66
2022/06/26 00:33:28;;;;;;;7.07;3.45;;;;;;;19.56;75.13;100550.75;6000141;28;20042;-66
2022/06/26 00:36:23;;;;;;;5.28;3.35;;;;;;;19.60;75.21;100554.69;6001882;28;20046;-66
2022/06/26 00:39:18;;;;;;;4.77;3.00;;;;;;;19.62;75.04;100560.69;6002271;28;20042;-66
2022/06/26 00:42:13;;;;;;;4.88;3.50;;;;;;;19.49;75.50;100555.31;6001338;28;20069;-66
2022/06/26 00:45:10;;;;;;;6.27;3.30;;;;;;;19.55;75.58;100559.84;6002280;28;20023;-66
2022/06/26 00:48:05;;;;;;;7.90;3.65;;;;;;;19.61;75.29;100548.28;5998994;28;20505;-66
2022/06/26 00:51:00;;;;;;;5.30;3.70;;;;;;;19.62;75.41;100554.47;6001293;28;20038;-66
2022/06/26 00:53:56;;;;;;;5.15;3.50;;;;;;;19.66;75.39;100553.84;6001717;28;20121;-66
2022/06/26 00:56:51;;;;;;;5.87;3.10;;;;;;;19.84;74.48;100559.41;6004606;28;20062;-66
2022/06/26 00:59:47;;;;;;;5.60;3.37;;;;;;;20.08;74.36;100564.09;6006294;28;20278;-66
2022/06/26 01:02:42;;;;;;;5.13;3.50;;;;;;;20.02;73.59;100558.75;6004773;28;20031;-66
2022/06/26 01:05:39;;;;;;;4.30;3.30;;;;;;;19.92;74.36;100559.19;5993808;28;20475;-67
2022/06/26 01:08:35;;;;;;;5.70;3.10;;;;;;;20.15;74.19;100556.84;6005932;28;20105;-66
2022/06/26 01:11:30;;;;;;;4.93;3.33;;;;;;;20.17;73.50;100557.47;6005372;28;20035;-66
2022/06/26 01:14:26;;;;;;;6.27;3.70;;;;;;;19.80;74.10;100557.34;6006107;28;20019;-66
2022/06/26 01:17:21;;;;;;;5.35;3.53;;;;;;;19.69;75.00;100558.81;6004267;28;20848;-66
2022/06/26 01:20:17;;;;;;;5.28;3.63;;;;;;;19.61;75.47;100559.03;6002886;28;20039;-67
2022/06/26 01:23:12;;;;;;;5.68;3.33;;;;;;;19.63;74.83;100548.88;6019939;28;20125;-66
2022/06/26 01:26:07;;;;;;;4.40;3.70;;;;;;;19.49;75.52;100549.91;6006179;28;20053;-66
2022/06/26 01:29:04;;;;;;;5.87;3.80;;;;;;;19.32;76.41;100557.53;6005427;28;20043;-66
2022/06/26 01:31:59;;;;;;;6.72;3.45;;;;;;;19.44;76.48;100560.47;6002308;28;20294;-66
2022/06/26 01:34:54;;;;;;;5.73;3.80;;;;;;;19.37;76.41;100559.63;5998947;28;20046;-66
2022/06/26 01:37:50;;;;;;;5.40;3.70;;;;;;;19.62;75.31;100571.47;6003662;28;20490;-66
2022/06/26 01:40:45;;;;;;;5.73;3.40;;;;;;;19.34;76.28;100578.88;6005252;28;20030;-66
2022/06/26 01:43:41;;;;;;;7.07;3.40;;;;;;;19.25;76.79;100569.34;6005126;28;20043;-66
2022/06/26 01:46:36;;;;;;;5.40;3.08;;;;;;;19.23;76.70;100566.88;6005050;28;20043;-66
2022/06/26 01:49:31;;;;;;;7.60;3.73;;;;;;;19.23;77.22;100574.09;5996132;28;20035;-66
2022/06/26 01:52:26;;;;;;;5.57;4.20;;;;;;;19.06;77.84;100575.50;6018829;28;20278;-66
2022/06/26 01:55:22;;;;;;;6.80;3.60;;;;;;;19.10;77.98;100564.16;6004972;28;20836;-66
2022/06/26 01:58:17;;;;;;;6.97;3.57;;;;;;;19.07;77.82;100566.44;6004786;28;20030;-66
2022/06/26 02:01:13;;;;;;;7.90;3.85;;;;;;;19.13;77.77;100565.63;6003970;28;20278;-66
2022/06/26 02:04:08;;;;;;;5.43;3.70;;;;;;;19.11;77.87;100578.41;6003584;28;20394;-66
2022/06/26 02:07:03;;;;;;;6.93;3.22;;;;;;;19.08;78.14;100573.47;6003985;28;20376;-66
2022/06/26 02:16:28;;;;;;;4.90;3.60;;;;;;;19.62;76.00;100573.31;6004655;28;20039;-66
2022/06/26 02:19:23;;;;;;;6.20;3.43;;;;;;;19.48;76.79;100567.94;6004283;28;20035;-66
2022/06/26 02:22:18;;;;;;;6.83;3.50;;;;;;;19.14;77.21;100573.47;6003311;28;20289;-67
2022/06/26 02:25:13;;;;;;;4.93;3.30;;;;;;;18.67;78.80;100577.06;5994712;28;20039;-67
2022/06/26 02:28:10;;;;;;;5.63;3.50;;;;;;;18.39;80.42;100581.69;6005024;28;20035;-67
2022/06/26 02:31:05;;;;;;;4.22;3.40;;;;;;;18.49;80.71;100587.56;6003910;28;20121;-67
2022/06/26 02:34:01;;;;;;;4.82;3.55;;;;;;;18.38;81.44;100577.34;6003517;28;20049;-67
2022/06/26 02:36:56;;;;;;;6.53;3.20;;;;;;;18.92;80.26;100580.03;6004310;28;20117;-67
2022/06/26 02:39:51;;;;;;;5.90;3.10;;;;;;;19.14;79.54;100581.53;6003463;28;20400;-67
2022/06/26 02:42:47;;;;;;;6.30;3.37;;;;;;;19.23;78.13;100574.09;6003385;28;20038;-66
2022/06/26 02:45:42;;;;;;;5.32;3.08;;;;;;;19.40;78.28;100583.47;6003437;28;20114;-66
2022/06/26 02:48:37;;;;;;;8.77;3.60;;;;;;;19.40;77.18;100570.00;6003414;28;20049;-66
2022/06/26 02:51:33;;;;;;;5.78;3.47;;;;;;;19.02;78.03;100586.66;6002988;28;20270;-67
2022/06/26 02:54:28;;;;;;;9.27;3.70;;;;;;;18.80;79.60;100579.81;5998049;28;20039;-66
2022/06/26 02:57:23;;;;;;;4.80;3.40;;;;;;;19.33;78.50;100582.56;6003757;28;20498;-66
2022/06/26 03:00:19;;;;;;;5.27;3.47;;;;;;;19.50;77.64;100578.50;6003471;28;20385;-66
2022/06/26 03:03:14;;;;;;;11.23;3.50;;;;;;;19.45;77.41;100571.06;6000730;28;20050;-67
2022/06/26 03:06:09;;;;;;;6.83;3.43;;;;;;;19.17;77.58;100582.97;6003579;28;20277;-67
2022/06/26 03:09:04;;;;;;;5.50;3.40;;;;;;;18.78;79.11;100581.84;5991688;28;20034;-67
2022/06/26 03:12:00;;;;;;;4.57;3.20;;;;;;;18.72;79.38;100565.75;6001478;28;20270;-66
2022/06/26 03:14:56;;;;;;;5.70;3.17;;;;;;;18.58;80.05;100572.94;5993162;28;20484;-66
2022/06/26 03:17:51;;;;;;;5.18;3.65;;;;;;;18.93;80.24;100570.94;6000354;28;20290;-67
2022/06/26 03:20:46;;;;;;;6.30;4.40;;;;;;;19.14;79.77;100584.22;5996057;28;20166;-66
2022/06/26 03:26:55;;;;;;;5.57;3.17;;;;;;;19.66;77.56;100578.06;6001271;28;20046;-66
2022/06/26 03:29:51;;;;;;;6.53;3.20;;;;;;;19.91;76.34;100587.16;5991780;28;20466;-66
2022/06/26 03:32:46;;;;;;;4.60;3.00;;;;;;;19.77;76.06;100563.97;5996026;28;20039;-66
2022/06/26 03:35:41;;;;;;;6.53;3.03;;;;;;;19.91;76.56;100587.16;5999683;28;20046;-66
2022/06/26 03:38:37;;;;;;;6.37;3.53;;;;;;;19.85;74.96;100582.59;5987763;28;20281;-66
2022/06/26 03:41:33;;;;;;;7.88;3.55;;;;;;;19.55;75.40;100592.13;6002653;28;20274;-66
2022/06/26 03:44:30;;;;;;;6.22;3.08;;;;;;;19.15;77.09;100595.81;6001567;28;20093;-66
2022/06/26 03:47:26;;;;;;;6.82;3.58;;;;;;;18.92;77.88;100602.38;6002500;28;20042;-66
2022/06/26 03:50:21;;;;;;;5.47;3.47;;;;;;;18.78;78.76;100611.41;6002436;28;20046;-66
2022/06/26 03:53:17;;;;;;;5.93;3.57;;;;;;;18.59;78.90;100596.06;5993000;28;20406;-66
2022/06/26 03:56:12;;;;;;;6.30;3.38;;;;;;;18.81;78.76;100605.63;6002941;28;20113;-67
2022/06/26 03:59:07;;;;;;;8.43;4.00;;;;;;;18.84;78.20;100602.56;6000274;28;20051;-66
2022/06/26 04:02:04;;;;;;;5.50;3.72;;;;;;;18.88;78.48;100619.13;5997371;28;20114;-66
2022/06/26 04:04:59;;;;;;;7.43;3.67;;;;;;;18.95;77.88;100607.34;5995845;28;20125;-66
2022/06/26 04:07:55;;;;;;;6.43;3.90;;;;;;;18.84;77.88;100615.16;6000487;28;20041;-66
2022/06/26 04:10:50;;;;;;;7.40;3.70;;;;;;;18.72;78.67;100614.94;6001792;28;20376;-66
2022/06/26 04:13:45;;;;;;;5.73;3.73;;;;;;;18.58;78.94;100602.47;5998820;28;20041;-66
2022/06/26 04:16:41;;;;;;;7.70;3.90;;;;;;;18.74;78.65;100612.88;6002743;28;20060;-66
2022/06/26 04:19:36;;;;;;;5.33;3.57;;;;;;;18.62;79.03;100605.56;6001375;28;20376;-66
2022/06/26 04:22:31;;;;;;;8.93;3.80;;;;;;;18.73;78.54;100603.13;6000569;28;20498;-66
2022/06/26 04:25:28;;;;;;;7.33;4.20;;;;;;;19.17;77.33;100602.63;6002020;28;20497;-66
2022/06/26 04:28:23;;;;;;;9.15;3.67;;;;;;;19.23;76.61;100606.38;5991911;28;20038;-66
2022/06/26 04:31:19;;;;;;;8.30;3.77;;;;;;;18.96;77.12;100600.94;6005037;28;20050;-66
2022/06/26 04:34:14;;;;;;;6.60;3.70;;;;;;;19.13;77.05;100614.00;5998833;28;20037;-66
2022/06/26 04:37:10;;;;;;;8.38;3.88;;;;;;;19.22;76.42;100615.44;6006253;28;20289;-66
2022/06/26 04:40:06;;;;;;;8.48;4.20;;;;;;;19.46;74.89;100609.50;5999066;28;20110;-66
2022/06/26 04:43:01;;;;;;;7.13;4.03;;;;;;;20.12;73.50;100616.50;6005567;28;20050;-66
2022/06/26 04:45:56;;;;;;;9.23;4.03;;;;;;;20.44;72.03;100619.34;6002461;28;20434;-66
2022/06/26 04:48:52;;;;;;;12.63;3.70;;;;;;;20.54;70.94;100603.56;6004116;28;20634;-66
2022/06/26 04:51:48;;;;;;;7.78;4.00;;;;;;;20.82;69.41;100606.75;6005915;28;20487;-66
2022/06/26 04:54:43;;;;;;;7.53;3.80;;;;;;;20.85;69.68;100611.72;5990646;28;20434;-66
2022/06/26 04:57:39;;;;;;;8.80;4.55;;;;;;;20.90;68.68;100614.59;6004779;28;20294;-66
2022/06/26 05:00:34;;;;;;;9.05;4.18;;;;;;;21.41;67.81;100622.63;6006191;28;20042;-66
2022/06/26 05:03:29;;;;;;;10.77;4.80;;;;;;;21.81;66.36;100612.31;6005422;28;20037;-67
2022/06/26 05:06:24;;;;;;;6.90;4.27;;;;;;;21.73;65.57;100613.44;6004792;28;20781;-66
2022/06/26 05:09:21;;;;;;;5.50;3.70;;;;;;;21.14;67.93;100631.94;6005363;28;20045;-66
2022/06/26 05:12:16;;;;;;;6.05;3.53;;;;;;;20.47;70.13;100627.00;6004853;28;20038;-66
2022/06/26 05:15:12;;;;;;;7.10;3.20;;;;;;;20.18;72.28;100631.00;6002676;28;20390;-66
2022/06/26 05:18:07;;;;;;;7.63;3.60;;;;;;;20.56;70.39;100623.88;6005288;28;20286;-66
2022/06/26 05:21:03;;;;;;;8.77;3.70;;;;;;;20.69;70.08;100628.38;6004686;28;20122;-66
2022/06/26 05:23:58;;;;;;;7.60;3.60;;;;;;;21.40;67.80;100631.75;6003389;28;20462;-67
2022/06/26 05:26:54;;;;;;;5.25;3.60;;;;;;;21.49;66.60;100627.75;6005117;28;20506;-66
2022/06/26 05:29:50;;;;;;;7.27;3.27;;;;;;;21.22;67.99;100620.88;6005161;28;20538;-66
2022/06/26 05:32:45;;;;;;;5.95;3.67;;;;;;;21.02;68.73;100629.06;6002928;28;20070;-66
2022/06/26 05:35:41;;;;;;;4.33;3.43;;;;;;;21.33;68.61;100637.19;6000780;28;20031;-66
2022/06/26 05:38:37;;;;;;;4.70;3.30;;;;;;;21.78;66.23;100628.94;6005925;28;20384;-66
2022/06/26 05:41:33;;;;;;;5.53;3.67;;;;;;;21.78;66.43;100624.38;6004151;28;20034;-67
2022/06/26 05:44:28;;;;;;;6.43;3.88;;;;;;;21.62;67.16;100621.41;5998539;28;20532;-66
2022/06/26 05:47:25;;;;;;;5.50;3.83;;;;;;;22.02;65.95;100633.53;6004929;28;20043;-66
2022/06/26 05:50:21;;;;;;;4.75;3.33;;;;;;;22.33;65.34;100633.44;6005660;28;20465;-65
2022/06/26 05:53:17;;;;;;;6.35;3.40;;;;;;;22.80;63.08;100625.63;6002306;28;20042;-66
2022/06/26 05:56:12;;;;;;;4.78;3.42;;;;;;;22.92;62.90;100626.50;6003757;28;20030;-66
2022/06/26 05:59:08;;;;;;;4.67;3.30;;;;;;;23.23;61.92;100622.75;6004263;28;20031;-66
2022/06/26 06:02:03;;;;;;;5.38;3.15;;;;;;;24.35;58.11;100633.34;6005002;28;20270;-66
2022/06/26 06:04:58;;;;;;;5.15;3.60;;;;;;;24.51;57.19;100627.22;6000709;28;20086;-66
2022/06/26 06:07:55;;;;;;;4.97;3.30;;;;;;;23.45;59.96;100648.25;6004536;28;20039;-66
2022/06/26 06:10:50;;;;;;;4.88;3.08;;;;;;;23.72;60.00;100644.06;6003875;28;20122;-66
2022/06/26 06:13:46;;;;;;;7.70;3.30;;;;;;;24.48;57.42;100643.97;6004868;28;20042;-66
2022/06/26 06:16:41;;;;;;;8.30;3.50;;;;;;;25.20;54.40;100641.63;6004437;28;20043;-66
2022/06/26 06:19:36;;;;;;;4.82;2.80;;;;;;;26.23;51.54;100655.63;6004939;28;20038;-66
2022/06/26 06:22:32;;;;;;;6.37;3.43;;;;;;;25.67;53.18;100653.91;6003464;28;20042;-66
2022/06/26 06:25:27;;;;;;;7.25;3.28;;;;;;;26.21;52.26;100651.50;5998259;28;20062;-66
2022/06/26 06:28:23;;;;;;;6.68;3.60;;;;;;;25.31;54.05;100660.56;6003964;28;20070;-66
2022/06/26 06:31:18;;;;;;;8.10;3.33;;;;;;;24.93;55.63;100663.09;6003494;28;20066;-66
2022/06/26 06:34:13;;;;;;;8.10;3.70;;;;;;;24.27;57.37;100674.38;6002065;28;20546;-66
2022/06/26 06:37:08;;;;;;;6.30;3.23;;;;;;;24.22;57.81;100672.41;6004578;28;20750;-66
2022/06/26 06:40:04;;;;;;;5.95;3.67;;;;;;;23.82;57.32;100673.28;6002420;28;20113;-66
2022/06/26 06:43:00;;;;;;;7.50;3.42;;;;;;;23.52;57.97;100671.47;5986640;28;20503;-66
2022/06/26 06:45:55;;;;;;;10.60;4.28;;;;;;;23.86;57.60;100678.00;6003817;28;20039;-66
2022/06/26 06:48:50;;;;;;;10.93;4.17;;;;;;;23.99;57.56;100685.91;5999008;28;20106;-66
2022/06/26 06:51:45;;;;;;;5.40;3.77;;;;;;;24.27;56.67;100679.81;6002917;28;20286;-67
2022/06/26 06:54:41;;;;;;;8.17;4.00;;;;;;;24.59;56.49;100677.56;6000934;28;20037;-66
2022/06/26 06:57:36;;;;;;;9.03;3.30;;;;;;;25.73;52.21;100690.16;6001198;28;20035;-66
2022/06/26 07:00:31;;;;;;;6.00;3.20;;;;;;;25.74;51.34;100681.72;6003259;28;20266;-66
2022/06/26 07:03:27;;;;;;;5.90;3.10;;;;;;;26.11;49.51;100682.06;6003282;28;20094;-67
2022/06/26 07:06:22;;;;;;;5.47;3.10;;;;;;;26.01;49.91;100688.16;6003291;28;20329;-67
2022/06/26 07:09:17;;;;;;;7.33;3.10;;;;;;;26.67;49.35;100688.31;5999191;28;20749;-67
2022/06/26 07:12:13;;;;;;;5.30;2.60;;;;;;;26.76;47.19;100684.94;5995795;28;20027;-66
2022/06/26 07:15:08;;;;;;;5.07;2.67;;;;;;;26.34;47.67;100681.91;5992727;28;20283;-67
2022/06/26 07:18:04;;;;;;;4.22;2.67;;;;;;;26.89;47.51;100678.31;5999660;28;20105;-67
2022/06/26 07:20:59;;;;;;;3.38;2.08;;;;;;;27.96;44.02;100679.13;5990522;28;20050;-67
2022/06/26 07:23:55;;;;;;;4.90;2.50;;;;;;;27.69;46.27;100700.19;6001464;28;20035;-67
2022/06/26 07:26:50;;;;;;;4.00;2.70;;;;;;;28.46;46.31;100699.66;5998057;28;20333;-67
2022/06/26 07:29:45;;;;;;;5.70;3.03;;;;;;;28.49;46.35;100707.34;6002617;28;20253;-67
2022/06/26 07:32:41;;;;;;;4.00;2.38;;;;;;;27.61;48.83;100709.63;6000881;28;20038;-67
2022/06/26 07:35:37;;;;;;;4.32;2.25;;;;;;;27.27;49.01;100702.72;5998229;28;20037;-67
2022/06/26 07:38:32;;;;;;;4.43;2.47;;;;;;;27.93;47.86;100701.47;5999152;28;20475;-68
2022/06/26 07:41:27;;;;;;;3.63;2.60;;;;;;;28.16;46.84;100701.13;5992960;28;20074;-67
2022/06/26 07:44:22;;;;;;;4.63;2.20;;;;;;;27.98;47.37;100698.78;5992221;28;20049;-67
2022/06/26 07:47:18;;;;;;;5.77;2.53;;;;;;;27.56;48.75;100703.28;6000792;28;20117;-67
2022/06/26 07:50:13;;;;;;;5.23;2.30;;;;;;;27.86;48.05;100710.97;5991768;28;20113;-67
2022/06/26 07:53:09;;;;;;;4.37;2.40;;;;;;;28.16;46.43;100722.94;5999005;28;20645;-66
2022/06/26 07:56:04;;;;;;;5.30;2.10;;;;;;;28.04;45.97;100714.16;6002234;28;20051;-67
2022/06/26 07:59:00;;;;;;;3.00;2.30;;;;;;;28.33;45.42;100717.34;5998241;28;20057;-67
2022/06/26 08:01:55;;;;;;;2.47;1.98;;;;;;;27.67;44.93;100719.50;6001835;28;20031;-67
2022/06/26 08:04:50;;;;;;;2.95;2.10;;;;;;;27.62;45.68;100713.19;6001147;28;20043;-67
2022/06/26 08:07:46;;;;;;;8.37;2.40;;;;;;;28.00;43.18;100714.88;6002071;28;20046;-67
2022/06/26 08:10:41;;;;;;;4.20;2.27;;;;;;;28.15;42.42;100725.94;6001654;28;20106;-67
2022/06/26 08:13:37;;;;;;;3.85;2.30;;;;;;;28.03;44.35;100731.56;5993986;28;20046;-67
2022/06/26 08:16:32;;;;;;;5.43;2.00;;;;;;;28.09;43.80;100736.00;5995405;28;20118;-67
2022/06/26 08:19:27;;;;;;;4.68;2.60;;;;;;;28.14;42.68;100741.50;6002409;28;20487;-67
2022/06/26 08:22:23;;;;;;;2.60;2.10;;;;;;;28.15;42.99;100740.41;5997615;28;20085;-67
2022/06/26 08:25:18;;;;;;;3.47;2.20;;;;;;;28.41;42.67;100741.41;5999186;28;20484;-67
2022/06/26 08:28:14;;;;;;;3.40;2.20;;;;;;;28.05;43.12;100739.47;5992419;28;20034;-67
2022/06/26 08:31:09;;;;;;;3.72;2.30;;;;;;;28.38;42.43;100730.19;5996845;28;20966;-68
2022/06/26 08:34:04;;;;;;;4.07;2.30;;;;;;;28.54;41.26;100734.66;6001999;28;20046;-67
2022/06/26 08:37:00;;;;;;;3.73;1.93;;;;;;;28.95;39.36;100731.09;6001928;28;20039;-67
2022/06/26 08:39:55;;;;;;;4.20;1.90;;;;;;;28.72;41.15;100737.81;5997919;28;20285;-67
2022/06/26 08:42:53;;;;;;;4.30;2.00;;;;;;;28.67;41.13;100743.22;5991428;28;20039;-67
2022/06/26 08:45:50;;;;;;;2.60;1.90;;;;;;;28.61;41.32;100738.81;5999839;28;20034;-67
2022/06/26 08:48:47;;;;;;;3.13;1.90;;;;;;;28.47;40.44;100739.53;5989796;28;20117;-67
2022/06/26 08:51:44;;;;;;;2.95;1.90;;;;;;;28.64;40.31;100741.06;5985634;28;20051;-67
2022/06/26 08:54:39;;;;;;;3.67;2.05;;;;;;;29.06;41.11;100743.69;5995575;28;20031;-67
2022/06/26 08:57:36;;;;;;;2.60;1.80;;;;;;;29.33;38.61;100738.91;5993721;28;20098;-67
2022/06/26 09:00:32;;;;;;;1.98;1.73;;;;;;;28.98;39.46;100738.75;5997047;28;20357;-67
2022/06/26 09:03:27;;;;;;;2.53;1.90;;;;;;;29.06;39.96;100746.44;6000771;28;20027;-67
2022/06/26 09:06:22;;;;;;;3.53;2.20;;;;;;;29.18;38.87;100757.97;5988948;28;20031;-67
2022/06/26 09:09:22;;;;;;;3.17;2.15;;;;;;;28.48;39.96;100741.19;5996257;28;20026;-67
2022/06/26 09:12:17;;;;;;;3.17;2.10;;;;;;;28.44;41.94;100750.97;5999569;28;20490;-67
2022/06/26 09:15:17;;;;;;;4.43;2.23;;;;;;;28.75;40.73;100745.50;6002162;28;20045;-67
2022/06/26 09:18:13;;;;;;;4.13;2.30;;;;;;;29.16;39.50;100734.75;6002563;28;20479;-68
2022/06/26 09:21:10;;;;;;;3.40;2.40;;;;;;;29.58;38.37;100748.25;6008998;28;20114;-67
2022/06/26 09:24:11;;;;;;;4.28;2.00;;;;;;;29.68;37.83;100745.56;5997690;28;20034;-67
2022/06/26 09:27:15;;;;;;;3.92;2.20;;;;;;;30.66;36.25;100749.66;6004353;28;20055;-67
2022/06/26 09:30:10;;;;;;;2.88;2.00;;;;;;;30.54;36.98;100752.72;5999035;28;20041;-67
2022/06/26 09:33:06;;;;;;;3.47;2.42;;;;;;;30.56;37.51;100749.69;6001457;28;20122;-68
2022/06/26 09:36:03;;;;;;;2.83;2.30;;;;;;;30.02;38.71;100746.72;6000292;28;20035;-67
2022/06/26 09:38:59;;;;;;;3.65;2.60;;;;;;;30.12;38.69;100746.69;5996095;28;20279;-67
2022/06/26 09:41:55;;;;;;;2.63;2.20;;;;;;;30.15;37.11;100748.88;5994281;28;20066;-67
2022/06/26 09:44:52;;;;;;;3.75;2.10;;;;;;;30.07;37.70;100749.44;6003799;28;20113;-67
2022/06/26 09:47:48;;;;;;;7.38;2.38;;;;;;;30.77;36.49;100747.72;6005875;28;20034;-68
2022/06/26 09:50:45;;;;;;;2.88;2.20;;;;;;;30.57;37.35;100749.44;6003415;28;20071;-67
2022/06/26 09:53:40;;;;;;;4.00;2.20;;;;;;;30.44;37.24;100741.78;5997156;28;20046;-67
2022/06/26 09:56:36;;;;;;;3.47;2.23;;;;;;;30.83;36.86;100746.59;5999970;28;20034;-68
2022/06/26 09:59:33;;;;;;;3.80;2.30;;;;;;;31.18;36.47;100749.25;6005167;28;20274;-68
2022/06/26 10:08:59;;;;;;;3.08;2.15;;;;;;;30.83;37.53;100752.09;6003531;28;20402;-66
2022/06/26 10:11:57;;;;;;;4.55;2.30;;;;;;;30.77;37.09;100750.44;6004160;28;20046;-66
2022/06/26 10:14:53;;;;;;;3.00;2.00;;;;;;;30.74;37.25;100754.56;6003827;28;20063;-66
2022/06/26 10:18:04;;;;;;;3.67;2.60;;;;;;;31.08;36.88;100754.78;6005123;28;20117;-66
2022/06/26 10:21:08;;;;;;;2.78;2.40;;;;;;;30.66;37.52;100753.22;6018115;28;20031;-65
2022/06/26 10:24:04;;;;;;;3.80;2.95;;;;;;;30.66;37.67;100766.91;6000522;28;20097;-66
2022/06/26 10:27:01;;;;;;;3.70;2.13;;;;;;;30.33;37.54;100759.28;6003575;28;20038;-67
2022/06/26 10:30:10;;;;;;;3.25;2.30;;;;;;;30.68;39.18;100761.97;6008117;28;20067;-66
2022/06/26 10:33:10;;;;;;;10.30;2.83;;;;;;;31.04;37.46;100764.63;5992694;28;20039;-67
2022/06/26 10:36:06;;;;;;;3.55;2.40;;;;;;;31.32;37.41;100763.16;5999391;28;20042;-67
2022/06/26 10:39:06;;;;;;;4.03;2.40;;;;;;;31.36;36.66;100759.59;6003260;28;20030;-66
2022/06/26 10:45:25;;;;;;;5.93;2.22;;;;;;;31.75;35.99;100760.47;6004585;28;20042;-67
2022/06/26 10:48:24;;;;;;;2.83;2.30;;;;;;;31.06;36.88;100765.19;6002586;28;20105;-69
2022/06/26 10:51:28;;;;;;;4.18;2.47;;;;;;;31.00;38.35;100760.84;6003455;28;20030;-66
2022/06/26 10:54:27;;;;;;;3.55;2.50;;;;;;;30.68;37.83;100767.47;6004208;28;20058;-67
2022/06/26 10:57:36;;;;;;;3.47;2.47;;;;;;;30.24;37.81;100766.41;6003989;28;20041;-66
2022/06/26 11:00:31;;;;;;;4.65;2.50;;;;;;;30.88;36.82;100765.75;6003614;28;20027;-67
2022/06/26 11:03:28;;;;;;;2.75;2.30;;;;;;;30.63;37.51;100759.25;6002880;28;20053;-67
2022/06/26 11:06:26;;;;;;;3.05;2.00;;;;;;;30.18;37.79;100759.28;6003662;28;20027;-68
2022/06/26 11:09:22;;;;;;;8.02;2.58;;;;;;;30.20;38.00;100756.28;6003873;28;20042;-67
2022/06/26 11:12:17;;;;;;;8.63;2.65;;;;;;;30.82;37.98;100761.41;6003053;28;20042;-67
2022/06/26 11:15:26;;;;;;;3.47;2.43;;;;;;;31.41;34.93;100750.50;6002924;28;20030;-67
2022/06/26 11:18:21;;;;;;;3.83;2.45;;;;;;;31.72;35.31;100749.22;6002854;28;20038;-68
2022/06/26 11:21:17;;;;;;;3.17;2.53;;;;;;;31.41;35.28;100754.06;6003088;28;20031;-67
2022/06/26 11:24:12;;;;;;;3.13;2.35;;;;;;;31.16;36.49;100748.72;6001240;28;20038;-67
2022/06/26 11:27:08;;;;;;;3.37;2.37;;;;;;;30.93;38.12;100754.84;6000176;28;20106;-68
2022/06/26 11:30:04;;;;;;;4.45;2.40;;;;;;;31.58;35.01;100749.03;5987024;28;20278;-67
2022/06/26 11:32:59;;;;;;;4.88;2.38;;;;;;;31.34;34.98;100747.25;6001774;28;20406;-67
2022/06/26 11:35:55;;;;;;;4.47;2.40;;;;;;;31.31;36.54;100745.88;6002820;28;20042;-67
2022/06/26 11:38:53;;;;;;;4.13;2.40;;;;;;;31.54;36.12;100744.41;6003056;28;20297;-68
2022/06/26 11:41:48;;;;;;;2.95;2.30;;;;;;;31.52;34.30;100746.63;5996062;28;20134;-68
2022/06/26 11:44:52;;;;;;;4.60;2.33;;;;;;;31.71;34.25;100753.91;6000384;28;20086;-68
2022/06/26 11:47:47;;;;;;;3.80;2.20;;;;;;;31.47;36.15;100750.22;6002408;28;20206;-68
2022/06/26 11:50:51;;;;;;;3.67;2.20;;;;;;;31.25;35.23;100755.25;5997243;28;20036;-68
2022/06/26 11:53:48;;;;;;;3.50;1.70;;;;;;;31.23;35.19;100758.25;5994810;28;20078;-68
2022/06/26 11:56:43;;;;;;;3.65;2.17;;;;;;;31.03;35.24;100757.53;5997442;28;20058;-68
2022/06/26 11:59:43;;;;;;;2.67;2.00;;;;;;;31.41;36.17;100761.47;5998738;28;20035;-68
2022/06/26 12:02:44;;;;;;;3.33;2.13;;;;;;;31.51;34.95;100759.53;6002221;28;20266;-68
2022/06/26 12:05:41;;;;;;;2.72;1.90;;;;;;;31.35;35.50;100760.69;6002635;28;20035;-68
2022/06/26 12:08:37;;;;;;;4.35;2.30;;;;;;;30.65;35.40;100757.09;6002646;28;20039;-67
2022/06/26 12:11:40;;;;;;;5.00;2.20;;;;;;;30.49;36.49;100747.22;6000432;28;20034;-67
2022/06/26 12:14:46;;;;;;;3.83;2.13;;;;;;;30.40;38.64;100746.16;5997425;28;20090;-67
2022/06/26 12:17:42;;;;;;;3.25;2.20;;;;;;;30.97;37.95;100753.16;5998526;28;20038;-67
2022/06/26 12:20:39;;;;;;;2.72;1.95;;;;;;;31.29;36.04;100748.09;6001538;28;20035;-67
2022/06/26 12:23:36;;;;;;;3.42;2.33;;;;;;;31.22;36.12;100745.66;5999782;28;20046;-67
2022/06/26 12:26:37;;;;;;;2.90;1.98;;;;;;;31.42;35.50;100744.72;6001201;28;20467;-67
2022/06/26 12:29:33;;;;;;;5.57;2.10;;;;;;;31.69;35.17;100745.13;5996572;28;20066;-67
2022/06/26 12:32:28;;;;;;;3.97;2.50;;;;;;;31.93;35.49;100744.41;6004093;28;20117;-67
2022/06/26 12:35:25;;;;;;;3.93;2.17;;;;;;;32.23;35.40;100757.94;5998768;28;20033;-67
2022/06/26 12:38:27;;;;;;;3.88;2.05;;;;;;;32.15;35.69;100755.81;6010165;28;20273;-67
2022/06/26 12:41:23;;;;;;;2.75;2.00;;;;;;;32.00;34.70;100758.63;6001573;28;20038;-67
2022/06/26 12:44:18;;;;;;;2.67;2.10;;;;;;;31.66;36.02;100744.91;6002167;28;20038;-68
2022/06/26 12:47:13;;;;;;;4.15;2.22;;;;;;;31.54;36.18;100760.88;6002137;28;20038;-67
2022/06/26 12:50:09;;;;;;;4.10;2.30;;;;;;;31.99;34.91;100751.53;6000715;28;20031;-67
2022/06/26 12:53:04;;;;;;;3.30;2.50;;;;;;;31.86;35.66;100752.16;6005421;28;20031;-67
2022/06/26 12:56:00;;;;;;;3.08;2.40;;;;;;;32.13;34.88;100739.59;6005700;28;20019;-67
2022/06/26 12:58:55;;;;;;;4.38;2.33;;;;;;;32.29;35.97;100748.50;6006418;28;20038;-67
2022/06/26 13:01:50;;;;;;;3.33;2.60;;;;;;;32.23;34.28;100733.22;6005800;28;20478;-66
2022/06/26 13:04:46;;;;;;;4.93;2.63;;;;;;;31.49;36.21;100752.69;6003575;28;20041;-67
2022/06/26 13:07:42;;;;;;;5.22;3.00;;;;;;;30.93;39.06;100752.09;6005411;28;20133;-67
2022/06/26 13:10:38;;;;;;;3.65;2.40;;;;;;;30.26;40.74;100749.69;5995342;28;20411;-66
2022/06/26 13:13:34;;;;;;;3.40;2.67;;;;;;;30.08;41.09;100745.63;6002865;28;20398;-67
2022/06/26 13:16:30;;;;;;;3.95;2.60;;;;;;;29.87;42.23;100757.66;6004020;28;20430;-67
2022/06/26 13:19:25;;;;;;;6.80;3.25;;;;;;;29.43;42.60;100760.00;6004829;28;20037;-67
2022/06/26 13:22:21;;;;;;;3.60;2.97;;;;;;;28.86;44.57;100749.09;6000880;28;20043;-67
2022/06/26 13:25:16;;;;;;;4.03;3.10;;;;;;;28.66;44.36;100768.91;6004442;28;20054;-67
2022/06/26 13:28:11;;;;;;;5.83;3.23;;;;;;;28.16;45.56;100776.66;5999338;28;20042;-67
2022/06/26 13:31:07;;;;;;;4.50;2.90;;;;;;;28.02;45.56;100786.38;6002968;28;20049;-67
2022/06/26 13:34:02;;;;;;;4.63;3.07;;;;;;;27.90;46.24;100799.31;6000318;28;20046;-67
2022/06/26 13:36:58;;;;;;;5.78;3.10;;;;;;;27.78;46.74;100777.66;5999933;28;20300;-67
2022/06/26 13:39:53;;;;;;;4.17;2.97;;;;;;;27.90;46.64;100777.50;6004020;28;20086;-67
2022/06/26 13:42:48;;;;;;;3.83;2.90;;;;;;;28.08;46.40;100768.97;6007819;28;20796;-67
2022/06/26 13:45:44;;;;;;;4.57;3.60;;;;;;;28.45;45.56;100791.66;6005322;28;20288;-67
2022/06/26 13:48:39;;;;;;;3.27;2.97;;;;;;;28.63;45.17;100787.72;5996866;28;20286;-67
2022/06/26 13:51:35;;;;;;;6.23;3.60;;;;;;;28.53;44.92;100790.34;6000879;28;20361;-67
2022/06/26 13:54:31;;;;;;;3.88;2.95;;;;;;;28.97;44.58;100782.72;5999357;28;20114;-67
2022/06/26 13:57:27;;;;;;;4.22;2.60;;;;;;;28.96;43.61;100787.38;6006709;28;20383;-67